Putney, VT (05346)

2:22 AM EST on February 10, 2016 (GMT -0500)
Green Mountain Orchard | | Change Station
CLOSE
Current Station
Personal Weather Station
Location: Putney, VT
Elevation: 715 ft
Nearby Weather Stations

Elev 715 ft 42.99 °N, 72.54 °W | Updated 4 seconds ago

Partly Cloudy
Partly Cloudy
13.9 °F
Feels Like 14 °F
N
0.0
Wind Variable Wind from North
Gusts 0.0 mph

Today
High -- | Low -- °F
--% Chance of Precip.
Yesterday
High -- | Low -- °F
Precip. -- in
Pressure 29.55 in
Visibility 10.0 miles
Clouds Mostly Cloudy 3100 ft
Windchill 14 °F
Dew Point 11 °F
Humidity 83%
Rainfall 0.00 in
Snow Depth Not available.
6:55 AM 5:14 PM
Waxing Crescent, 4% visible
METAR KEEN 100715Z AUTO 20003KT 10SM BKN031 M08/M11 A2955 RMK AO1
Pressure 29.55 in
Visibility 10.0 miles
Clouds Mostly Cloudy 3100 ft
Windchill 14 °F
Dew Point 11 °F
Humidity 83%
Rainfall 0.00 in
Snow Depth Not available.
6:55 AM 5:14 PM
Waxing Crescent, 4% visible
METAR KEEN 100715Z AUTO 20003KT 10SM BKN031 M08/M11 A2955 RMK AO1

10-Day Weather Forecast

Almanac

Astronomy

Feb. 10, 2016 Rise Set
Actual Time
Civil Twilight
Nautical Twilight
Astronomical Twilight
Moon
Length of Visible Light
Length of Day
Tomorrow will be .
, % of the Moon is Illuminated

Today's Extremes

State Highs State Lows

Community

WunderPhotos

Upload Photos

1,891,826 photos uploaded!

WunderBlog® & News

Nearby

Air Quality

  Air Quality AQ Index Pollutant
Not available.

Snow Depth

Station Depth Elevation

Earthquake Activity

City Distance Mag. Time & Date
Minimum magnitude displayed is 2.5.

Coastal Water Temperatures

Place Temperature

Stations

Nearby Weather Stations

Station Location Temp. Windchill Dew Point Humidity Wind Precip. Elev Updated Type
                   

Watches & Warnings

There are currently no watches in effect.